createdAt,value
2022-11-08T00:00:02.938Z,16.53
2022-11-08T00:02:30.163Z,16.54
2022-11-08T00:04:57.106Z,16.55
2022-11-08T00:07:45.243Z,16.53
2022-11-08T00:10:30.992Z,16.50
2022-11-08T00:13:16.239Z,16.51
2022-11-08T00:15:43.217Z,16.53
2022-11-08T00:18:10.132Z,16.52
2022-11-08T00:20:37.030Z,16.51
2022-11-08T00:23:05.059Z,16.51
2022-11-08T00:25:34.167Z,16.53
2022-11-08T00:28:01.111Z,16.54
2022-11-08T00:30:28.050Z,16.57
2022-11-08T00:32:54.996Z,16.57
2022-11-08T00:35:21.982Z,16.54
2022-11-08T00:37:48.602Z,16.52
2022-11-08T00:40:15.488Z,16.50
2022-11-08T00:42:42.477Z,16.47
2022-11-08T00:45:09.513Z,16.46
2022-11-08T00:47:36.535Z,16.49
2022-11-08T00:50:03.833Z,16.49
2022-11-08T00:52:30.830Z,16.48
2022-11-08T00:54:57.778Z,16.48
2022-11-08T00:57:35.866Z,16.48
2022-11-08T01:00:12.763Z,16.49
2022-11-08T01:02:39.740Z,16.46
2022-11-08T01:05:06.842Z,16.47
2022-11-08T01:07:34.351Z,16.47
2022-11-08T01:10:01.438Z,16.48
2022-11-08T01:12:28.466Z,16.47
2022-11-08T01:14:55.369Z,16.47
2022-11-08T01:17:22.340Z,16.42
2022-11-08T01:19:49.325Z,16.42
2022-11-08T01:22:16.234Z,16.43
2022-11-08T01:24:43.183Z,16.43
2022-11-08T01:27:10.252Z,16.42
2022-11-08T01:29:37.287Z,16.41
2022-11-08T01:32:04.376Z,16.40
2022-11-08T01:34:31.316Z,16.39
2022-11-08T01:36:58.737Z,16.39
2022-11-08T01:39:25.346Z,16.39
2022-11-08T01:41:53.376Z,16.42
2022-11-08T01:44:22.066Z,16.43
2022-11-08T01:46:49.275Z,16.43
2022-11-08T01:49:24.128Z,16.42
2022-11-08T01:52:06.255Z,16.39
2022-11-08T01:54:36.376Z,16.41
2022-11-08T01:57:05.587Z,16.39
2022-11-08T01:59:33.812Z,16.43
2022-11-08T02:02:00.918Z,16.43
2022-11-08T02:04:27.919Z,16.42
2022-11-08T02:06:55.045Z,16.41
2022-11-08T02:09:21.653Z,16.45
2022-11-08T02:11:51.507Z,16.45
2022-11-08T02:14:18.526Z,16.43
2022-11-08T02:16:45.516Z,16.43
2022-11-08T02:19:17.936Z,16.43
2022-11-08T02:21:52.669Z,16.43
2022-11-08T02:24:19.565Z,16.42
2022-11-08T02:26:47.415Z,16.43
2022-11-08T02:29:28.998Z,16.42
2022-11-08T02:31:56.399Z,16.43
2022-11-08T02:34:26.290Z,16.46
2022-11-08T02:36:53.709Z,16.49
2022-11-08T02:39:20.618Z,16.50
2022-11-08T02:41:50.130Z,16.49
2022-11-08T02:44:17.011Z,16.47
2022-11-08T02:46:44.167Z,16.46
2022-11-08T02:52:29.574Z,16.50
2022-11-08T02:54:59.587Z,16.50
2022-11-08T02:57:27.070Z,16.50
2022-11-08T02:59:53.994Z,16.51
2022-11-08T03:02:21.059Z,16.50
2022-11-08T03:04:48.556Z,16.48
2022-11-08T03:07:16.878Z,16.49
2022-11-08T03:09:46.493Z,16.50
2022-11-08T03:12:15.425Z,16.50
2022-11-08T03:14:42.323Z,16.50
2022-11-08T03:17:09.685Z,16.49
2022-11-08T03:19:36.548Z,16.46
2022-11-08T03:22:03.576Z,16.47
2022-11-08T03:24:30.738Z,16.47
2022-11-08T03:26:57.771Z,16.48
2022-11-08T03:29:24.733Z,16.45
2022-11-08T03:31:52.217Z,16.42
2022-11-08T03:34:19.159Z,16.40
2022-11-08T03:36:46.223Z,16.39
2022-11-08T03:39:13.203Z,16.34
2022-11-08T03:41:43.887Z,16.32
2022-11-08T03:44:23.466Z,16.30
2022-11-08T03:46:50.419Z,16.29
2022-11-08T03:49:17.493Z,16.26
2022-11-08T03:51:44.559Z,16.25
2022-11-08T03:54:11.485Z,16.24
2022-11-08T03:56:38.408Z,16.23
2022-11-08T03:59:05.354Z,16.23
2022-11-08T04:01:39.936Z,16.21
2022-11-08T04:04:07.426Z,16.20
2022-11-08T04:06:34.454Z,16.17
2022-11-08T04:09:01.626Z,16.12
2022-11-08T04:11:47.107Z,16.06
2022-11-08T04:14:32.831Z,16.00
2022-11-08T04:16:59.819Z,16.00
2022-11-08T04:19:45.058Z,15.96
2022-11-08T04:22:12.097Z,15.92
2022-11-08T04:24:39.111Z,15.91
2022-11-08T04:27:06.203Z,15.91
2022-11-08T04:29:33.140Z,15.91
2022-11-08T04:31:59.997Z,15.91
2022-11-08T04:34:27.175Z,15.90
2022-11-08T04:36:54.716Z,15.91
2022-11-08T04:39:21.934Z,15.90
2022-11-08T04:41:50.762Z,15.89
2022-11-08T04:44:23.065Z,15.87
2022-11-08T04:46:50.026Z,15.86
2022-11-08T04:49:19.642Z,15.88
2022-11-08T04:51:46.514Z,15.87
2022-11-08T04:54:13.512Z,15.83
2022-11-08T04:56:42.005Z,15.80
2022-11-08T04:59:12.159Z,15.81
2022-11-08T05:01:41.556Z,15.84
2022-11-08T05:04:08.645Z,15.81
2022-11-08T05:06:35.622Z,15.79
2022-11-08T05:09:02.513Z,15.79
2022-11-08T05:11:30.119Z,15.76
2022-11-08T05:13:57.339Z,15.78
2022-11-08T05:16:27.735Z,15.77
2022-11-08T05:18:55.077Z,15.74
2022-11-08T05:21:41.566Z,15.74
2022-11-08T05:24:10.093Z,15.73
2022-11-08T05:26:37.748Z,15.71
2022-11-08T05:29:05.419Z,15.69
2022-11-08T05:31:41.086Z,15.69
2022-11-08T05:34:08.079Z,15.70
2022-11-08T05:36:35.416Z,15.67
2022-11-08T05:39:02.375Z,15.66
2022-11-08T05:41:30.162Z,15.65
2022-11-08T05:43:57.259Z,15.61
2022-11-08T05:46:24.294Z,15.61
2022-11-08T05:48:51.667Z,15.59
2022-11-08T05:51:19.257Z,15.58
2022-11-08T05:53:47.444Z,15.57
2022-11-08T05:56:14.505Z,15.57
2022-11-08T05:58:41.490Z,15.57
2022-11-08T06:01:09.820Z,15.54
2022-11-08T06:03:37.371Z,15.50
2022-11-08T06:06:04.871Z,15.39
2022-11-08T06:08:32.007Z,15.31
2022-11-08T06:11:06.478Z,15.24
2022-11-08T06:13:33.988Z,15.19
2022-11-08T06:16:04.865Z,15.14
2022-11-08T06:18:32.553Z,15.11
2022-11-08T06:21:00.194Z,15.07
2022-11-08T06:23:27.546Z,15.05
2022-11-08T06:25:54.596Z,15.05
2022-11-08T06:28:22.418Z,15.04
2022-11-08T06:30:49.526Z,14.99
2022-11-08T06:33:17.737Z,14.95
2022-11-08T06:35:44.995Z,14.97
2022-11-08T06:38:12.345Z,14.94
2022-11-08T06:40:39.767Z,14.94
2022-11-08T06:43:06.724Z,14.92
2022-11-08T06:45:33.756Z,14.89
2022-11-08T06:48:01.156Z,14.90
2022-11-08T06:50:28.775Z,14.87
2022-11-08T06:52:58.678Z,14.83
2022-11-08T06:55:25.634Z,14.81
2022-11-08T06:57:52.718Z,14.80
2022-11-08T07:00:19.785Z,14.79
2022-11-08T07:02:46.575Z,14.81
2022-11-08T07:05:13.434Z,14.82
2022-11-08T07:07:40.123Z,14.79
2022-11-08T07:10:07.082Z,14.79
2022-11-08T07:12:33.931Z,14.78
2022-11-08T07:15:00.551Z,14.80
2022-11-08T07:17:27.166Z,14.81
2022-11-08T07:19:53.765Z,14.80
2022-11-08T07:22:20.422Z,14.81
2022-11-08T07:24:47.071Z,14.81
2022-11-08T07:27:13.717Z,14.82
2022-11-08T07:29:40.340Z,14.83
2022-11-08T07:32:07.009Z,14.84
2022-11-08T07:34:33.807Z,14.84
2022-11-08T07:37:00.470Z,14.84
2022-11-08T07:39:27.104Z,14.84
2022-11-08T07:41:53.695Z,14.83
2022-11-08T07:44:20.297Z,14.83
2022-11-08T07:46:46.891Z,14.82
2022-11-08T07:49:13.500Z,14.83
2022-11-08T07:51:45.509Z,14.83
2022-11-08T07:54:12.122Z,14.87
2022-11-08T07:56:38.838Z,14.93
2022-11-08T07:59:05.517Z,14.94
2022-11-08T08:01:32.162Z,14.96
2022-11-08T08:03:58.936Z,15.01
2022-11-08T08:06:26.569Z,15.03
2022-11-08T08:08:53.203Z,15.07
2022-11-08T08:11:19.901Z,15.10
2022-11-08T08:13:46.520Z,15.11
2022-11-08T08:16:13.136Z,15.13
2022-11-08T08:18:39.926Z,15.13
2022-11-08T08:21:06.591Z,15.17
2022-11-08T08:23:33.329Z,15.17
2022-11-08T08:26:01.971Z,15.20
2022-11-08T08:28:28.569Z,15.18
2022-11-08T08:30:55.441Z,15.16
2022-11-08T08:33:30.026Z,15.19
2022-11-08T08:35:56.891Z,15.21
2022-11-08T08:38:23.600Z,15.20
2022-11-08T08:40:50.639Z,15.23
2022-11-08T08:43:17.879Z,15.27
2022-11-08T08:45:44.884Z,15.33
2022-11-08T08:48:11.506Z,15.34
2022-11-08T08:50:38.160Z,15.35
2022-11-08T08:53:05.720Z,15.39
2022-11-08T08:55:32.936Z,15.39
2022-11-08T08:57:59.555Z,15.41
2022-11-08T09:03:13.182Z,15.44
2022-11-08T09:05:44.031Z,15.49
2022-11-08T09:08:11.364Z,15.61
2022-11-08T09:10:38.220Z,15.65
2022-11-08T09:13:05.089Z,15.71
2022-11-08T09:15:31.737Z,15.75
2022-11-08T09:17:58.653Z,15.81
2022-11-08T09:20:25.877Z,15.80
2022-11-08T09:22:52.477Z,15.82
2022-11-08T09:25:19.147Z,15.83
2022-11-08T09:27:45.758Z,15.83
2022-11-08T09:30:12.410Z,15.88
2022-11-08T09:32:59.843Z,15.91
2022-11-08T09:35:25.703Z,15.90
2022-11-08T09:37:55.422Z,15.95
2022-11-08T09:40:31.663Z,15.96
2022-11-08T09:43:34.006Z,16.02
2022-11-08T09:46:00.874Z,16.12
2022-11-08T09:48:30.481Z,16.14
2022-11-08T09:50:58.852Z,16.12
2022-11-08T09:53:49.568Z,16.11
2022-11-08T09:56:25.478Z,16.13
2022-11-08T09:59:10.919Z,16.15
2022-11-08T10:01:55.430Z,16.17
2022-11-08T10:04:23.939Z,16.22
2022-11-08T10:07:02.725Z,16.20
2022-11-08T10:09:39.258Z,16.17
2022-11-08T10:12:05.833Z,16.22
2022-11-08T10:14:46.763Z,16.23
2022-11-08T10:17:28.605Z,16.28
2022-11-08T10:20:06.703Z,16.30
2022-11-08T10:22:59.357Z,16.36
2022-11-08T10:25:46.251Z,16.40
2022-11-08T10:28:17.184Z,16.41
2022-11-08T10:30:46.688Z,16.44
2022-11-08T10:33:22.655Z,16.48
2022-11-08T10:36:02.717Z,16.52
2022-11-08T10:38:34.401Z,16.52
2022-11-08T10:41:06.386Z,16.51
2022-11-08T10:43:40.653Z,16.53
2022-11-08T10:46:27.175Z,16.51
2022-11-08T10:48:53.903Z,16.50
2022-11-08T10:51:20.490Z,16.50
2022-11-08T10:53:47.151Z,16.49
2022-11-08T10:56:13.710Z,16.50
2022-11-08T10:58:41.853Z,16.48
2022-11-08T11:01:19.181Z,16.47
2022-11-08T11:03:46.899Z,16.42
2022-11-08T11:06:22.780Z,16.37
2022-11-08T11:08:50.647Z,16.31
2022-11-08T11:11:24.855Z,16.25
2022-11-08T11:14:08.147Z,16.21
2022-11-08T11:16:38.222Z,16.21
2022-11-08T11:19:05.998Z,16.17
2022-11-08T11:21:48.469Z,16.14
2022-11-08T11:24:20.413Z,16.16
2022-11-08T11:26:56.615Z,16.15
2022-11-08T11:29:27.910Z,16.18
2022-11-08T11:31:55.101Z,16.25
2022-11-08T11:34:32.233Z,16.30
2022-11-08T11:37:10.926Z,16.31
2022-11-08T11:39:52.006Z,16.32
2022-11-08T11:42:45.184Z,16.34
2022-11-08T11:45:31.785Z,16.40
2022-11-08T11:48:01.465Z,16.44
2022-11-08T11:50:38.472Z,16.50
2022-11-08T11:53:28.284Z,16.54
2022-11-08T11:56:00.851Z,16.57
2022-11-08T11:58:33.486Z,16.59
2022-11-08T12:01:11.762Z,16.67
2022-11-08T12:04:04.069Z,16.74
2022-11-08T12:06:43.033Z,16.79
2022-11-08T12:09:09.727Z,16.83
2022-11-08T12:11:40.949Z,16.87
2022-11-08T12:14:19.307Z,16.90
2022-11-08T12:16:56.820Z,16.91
2022-11-08T12:19:23.583Z,16.91
2022-11-08T12:21:59.081Z,16.92
2022-11-08T12:24:48.727Z,16.92
2022-11-08T12:27:41.788Z,16.92
2022-11-08T12:30:14.206Z,16.93
2022-11-08T12:32:40.783Z,16.94
2022-11-08T12:35:14.479Z,16.92
2022-11-08T12:37:41.089Z,16.89
2022-11-08T12:40:26.373Z,16.87
2022-11-08T12:42:52.914Z,16.82
2022-11-08T12:45:23.216Z,16.82
2022-11-08T12:47:59.151Z,16.73
2022-11-08T12:50:32.468Z,16.67
2022-11-08T12:53:17.874Z,16.58
2022-11-08T12:55:47.482Z,16.52
2022-11-08T12:58:34.312Z,16.50
2022-11-08T13:01:12.299Z,16.45
2022-11-08T13:03:49.486Z,16.47
2022-11-08T13:06:24.581Z,16.50
2022-11-08T13:08:59.218Z,16.48
2022-11-08T13:11:52.643Z,16.46
2022-11-08T13:14:20.130Z,16.43
2022-11-08T13:17:06.823Z,16.33
2022-11-08T13:19:51.650Z,16.13
2022-11-08T13:22:44.509Z,16.03
2022-11-08T13:25:11.139Z,15.98
2022-11-08T13:27:38.596Z,15.94
2022-11-08T13:30:11.058Z,15.86
2022-11-08T13:32:43.616Z,15.79
2022-11-08T13:35:21.695Z,15.77
2022-11-08T13:38:00.544Z,15.70
2022-11-08T13:40:33.129Z,15.66
2022-11-08T13:43:19.923Z,15.62
2022-11-08T13:45:46.912Z,15.56
2022-11-08T13:48:29.064Z,15.55
2022-11-08T13:51:15.972Z,15.44
2022-11-08T13:53:47.796Z,15.28
2022-11-08T13:56:23.049Z,15.20
2022-11-08T13:58:49.765Z,15.16
2022-11-08T14:01:19.540Z,15.12
2022-11-08T14:03:46.225Z,15.10
2022-11-08T14:06:18.771Z,15.09
2022-11-08T14:08:51.176Z,15.08
2022-11-08T14:11:24.223Z,15.09
2022-11-08T14:13:53.745Z,15.05
2022-11-08T14:16:23.588Z,15.04
2022-11-08T14:18:50.403Z,15.04
2022-11-08T14:21:18.791Z,14.99
2022-11-08T14:23:47.927Z,14.97
2022-11-08T14:26:17.955Z,14.96
2022-11-08T14:28:45.802Z,15.02
2022-11-08T14:31:28.884Z,15.03
2022-11-08T14:33:55.982Z,15.02
2022-11-08T14:36:23.938Z,15.02
2022-11-08T14:38:56.492Z,15.04
2022-11-08T14:41:25.290Z,15.02
2022-11-08T14:43:53.334Z,14.99
2022-11-08T14:46:25.849Z,14.95
2022-11-08T14:48:56.880Z,14.93
2022-11-08T14:51:31.502Z,14.91
2022-11-08T14:53:58.162Z,14.90
2022-11-08T14:56:26.618Z,14.81
2022-11-08T14:58:54.233Z,14.81
2022-11-08T15:01:25.787Z,14.86
2022-11-08T15:04:06.684Z,14.90
2022-11-08T15:06:35.407Z,14.89
2022-11-08T15:09:03.302Z,14.89
2022-11-08T15:11:37.247Z,14.90
2022-11-08T15:14:07.988Z,14.97
2022-11-08T15:16:39.175Z,15.00
2022-11-08T15:19:25.771Z,15.09
2022-11-08T15:21:52.996Z,15.12
2022-11-08T15:24:25.889Z,15.14
2022-11-08T15:27:07.164Z,15.12
2022-11-08T15:29:49.243Z,15.14
2022-11-08T15:32:17.821Z,15.17
2022-11-08T15:34:45.492Z,15.17
2022-11-08T15:37:31.087Z,15.15
2022-11-08T15:40:00.862Z,15.13
2022-11-08T15:42:27.460Z,15.11
2022-11-08T15:45:12.477Z,15.05
2022-11-08T15:47:44.044Z,15.01
2022-11-08T15:50:19.801Z,14.98
2022-11-08T15:52:47.778Z,14.96
2022-11-08T15:55:15.968Z,14.96
2022-11-08T15:57:43.718Z,14.89
2022-11-08T16:00:31.876Z,14.81
2022-11-08T16:02:58.831Z,14.74
2022-11-08T16:05:26.873Z,14.73
2022-11-08T16:07:54.016Z,14.70
2022-11-08T16:10:25.535Z,14.73
2022-11-08T16:12:52.270Z,14.69
2022-11-08T16:15:21.793Z,14.66
2022-11-08T16:17:48.444Z,14.69
2022-11-08T16:20:24.790Z,14.68
2022-11-08T16:22:51.948Z,14.68
2022-11-08T16:25:18.558Z,14.67
2022-11-08T16:27:52.500Z,14.69
2022-11-08T16:30:19.190Z,14.70
2022-11-08T16:32:45.752Z,14.70
2022-11-08T16:35:12.358Z,14.71
2022-11-08T16:37:39.410Z,14.68
2022-11-08T16:40:14.573Z,14.68
2022-11-08T16:42:41.157Z,14.68
2022-11-08T16:45:08.025Z,14.68
2022-11-08T16:47:35.157Z,14.71
2022-11-08T16:50:01.864Z,14.72
2022-11-08T16:52:28.420Z,14.75
2022-11-08T16:54:55.007Z,14.77
2022-11-08T16:57:34.218Z,14.77
2022-11-08T17:00:01.580Z,14.75
2022-11-08T17:02:33.301Z,14.73
2022-11-08T17:05:00.302Z,14.68
2022-11-08T17:07:28.153Z,14.63
2022-11-08T17:09:54.902Z,14.59
2022-11-08T17:12:21.613Z,14.57
2022-11-08T17:14:48.408Z,14.53
2022-11-08T17:17:15.548Z,14.52
2022-11-08T17:19:42.124Z,14.53
2022-11-08T17:22:08.784Z,14.52
2022-11-08T17:24:35.437Z,14.50
2022-11-08T17:27:02.637Z,14.49
2022-11-08T17:29:29.204Z,14.49
2022-11-08T17:31:55.824Z,14.48
2022-11-08T17:34:22.490Z,14.49
2022-11-08T17:36:52.806Z,14.50
2022-11-08T17:39:19.380Z,14.50
2022-11-08T17:41:45.983Z,14.51
2022-11-08T17:44:12.562Z,14.48
2022-11-08T17:46:39.284Z,14.45
2022-11-08T17:49:05.914Z,14.45
2022-11-08T17:51:41.328Z,14.41
2022-11-08T17:54:07.989Z,14.38
2022-11-08T17:56:34.894Z,14.37
2022-11-08T17:59:01.477Z,14.33
2022-11-08T18:01:29.234Z,14.32
2022-11-08T18:03:55.936Z,14.34
2022-11-08T18:06:22.589Z,14.36
2022-11-08T18:08:49.264Z,14.34
2022-11-08T18:11:15.926Z,14.34
2022-11-08T18:13:49.358Z,14.34
2022-11-08T18:16:19.917Z,14.35
2022-11-08T18:18:46.686Z,14.35
2022-11-08T18:21:14.033Z,14.32
2022-11-08T18:23:44.393Z,14.36
2022-11-08T18:26:11.706Z,14.40
2022-11-08T18:28:39.081Z,14.44
2022-11-08T18:31:10.438Z,14.40
